Time;durP1;ratioP1;P1;durP2;ratioP2;P2;SDS_P1;SDS_P2;PMS_P1;PMS_P2;Temp;Humidity;BMP_temperature;BMP_pressure;BME280_temperature;BME280_humidity;BME280_pressure;Samples;Min_cycle;Max_cycle;Signal;HPM_P1;HPM_P2
2024/04/06 00:01:18;;;;;;;;;;;;;;;15.88;38.41;100049.66;5073060;28;20008;-82
2024/04/06 00:03:43;;;;;;;;;;;;;;;15.86;39.30;100045.56;5074010;28;19929;-82
2024/04/06 00:06:08;;;;;;;;;;;;;;;15.82;39.86;100045.13;5074306;28;19912;-83
2024/04/06 00:08:33;;;;;;;;;;;;;;;15.80;38.41;100049.84;5074353;28;19997;-83
2024/04/06 00:10:59;;;;;;;;;;;;;;;15.75;38.46;100049.63;5074424;28;20006;-82
2024/04/06 00:13:24;;;;;;;;;;;;;;;15.71;39.25;100047.56;5072990;28;19920;-83
2024/04/06 00:15:49;;;;;;;;;;;;;;;15.69;38.96;100047.75;5073985;28;19939;-82
2024/04/06 00:18:14;;;;;;;;;;;;;;;15.69;38.80;100034.44;5074023;28;20003;-83
2024/04/06 00:20:40;;;;;;;;;;;;;;;15.72;39.44;100049.19;5072652;28;19913;-82
2024/04/06 00:23:05;;;;;;;;;;;;;;;15.68;38.62;100042.63;5072777;28;19999;-83
2024/04/06 00:25:31;;;;;;;;;;;;;;;15.64;39.60;100041.38;5072717;28;19912;-83
2024/04/06 00:27:56;;;;;;;;;;;;;;;15.63;39.35;100040.56;5073984;28;19999;-83
2024/04/06 00:30:21;;;;;;;;;;;;;;;15.63;39.92;100040.56;5073896;28;19913;-82
2024/04/06 00:32:46;;;;;;;;;;;;;;;15.65;39.44;100025.22;5072653;28;19992;-82
2024/04/06 00:35:12;;;;;;;;;;;;;;;15.69;39.62;100036.28;5074023;28;19913;-82
2024/04/06 00:37:37;;;;;;;;;;;;;;;15.51;40.06;100037.59;5073724;28;19916;-83
2024/04/06 00:40:03;;;;;;;;;;;;;;;15.40;40.30;100037.31;5072535;28;19913;-82
2024/04/06 00:42:28;;;;;;;;;;;;;;;15.27;40.00;100036.25;5073743;28;20438;-82
2024/04/06 00:44:54;;;;;;;;;;;;;;;15.32;39.82;100045.47;5073564;28;20309;-82
2024/04/06 00:47:19;;;;;;;;;;;;;;;15.34;39.95;100038.94;5073462;28;19960;-82
2024/04/06 00:49:45;;;;;;;;;;;;;;;15.34;39.42;100040.78;5073437;28;19916;-82
2024/04/06 00:52:10;;;;;;;;;;;;;;;15.33;40.05;100039.94;5072236;28;20024;-82
2024/04/06 00:54:35;;;;;;;;;;;;;;;15.31;40.22;100046.50;5073521;28;20328;-82
2024/04/06 00:57:01;;;;;;;;;;;;;;;15.31;40.07;100041.16;5073338;28;19917;-82
2024/04/06 00:59:26;;;;;;;;;;;;;;;15.25;40.30;100040.94;5073312;28;20389;-82
2024/04/06 01:01:51;;;;;;;;;;;;;;;15.25;40.01;100048.09;5073635;28;20270;-82
2024/04/06 01:04:17;;;;;;;;;;;;;;;15.22;40.69;100049.31;5073164;28;19932;-83
2024/04/06 01:06:42;;;;;;;;;;;;;;;15.19;39.77;100049.69;5073730;28;20348;-83
2024/04/06 01:09:08;;;;;;;;;;;;;;;15.17;40.28;100056.22;5071902;28;19982;-83
2024/04/06 01:11:35;;;;;;;;;;;;;;;15.15;39.46;100048.44;5073084;28;19912;-82
2024/04/06 01:14:01;;;;;;;;;;;;;;;15.14;40.49;100052.13;5073155;28;19979;-81
2024/04/06 01:16:26;;;;;;;;;;;;;;;15.18;41.00;100040.06;5072972;28;20381;-82
2024/04/06 01:18:51;;;;;;;;;;;;;;;15.23;39.74;100045.63;5072792;28;19916;-81
2024/04/06 01:21:19;;;;;;;;;;;;;;;15.26;39.72;100039.91;5072722;28;20425;-81
2024/04/06 01:23:45;;;;;;;;;;;;;;;15.24;39.60;100051.78;5072754;28;19918;-83
2024/04/06 01:26:10;;;;;;;;;;;;;;;15.17;39.96;100040.28;5072647;28;19999;-82
2024/04/06 01:28:35;;;;;;;;;;;;;;;15.17;39.37;100049.06;5072540;28;19962;-82
2024/04/06 01:31:01;;;;;;;;;;;;;;;15.16;40.13;100042.09;5072482;28;19904;-82
2024/04/06 01:33:26;;;;;;;;;;;;;;;15.10;40.61;100056.19;5072670;28;20425;-81
2024/04/06 01:35:51;;;;;;;;;;;;;;;15.04;40.45;100054.31;5071378;28;19918;-83
2024/04/06 01:38:17;;;;;;;;;;;;;;;15.00;40.15;100047.72;5071360;28;19927;-82
2024/04/06 01:40:42;;;;;;;;;;;;;;;14.92;40.54;100042.56;5072418;28;19920;-82
2024/04/06 01:43:07;;;;;;;;;;;;;;;14.85;40.53;100042.50;5072378;28;19916;-82
2024/04/06 01:45:33;;;;;;;;;;;;;;;14.80;40.18;100038.75;5072242;28;20386;-83
2024/04/06 01:47:59;;;;;;;;;;;;;;;14.73;40.30;100038.72;5072406;28;19912;-83
2024/04/06 01:50:24;;;;;;;;;;;;;;;14.70;40.65;100030.31;5072407;28;20385;-82
2024/04/06 01:52:49;;;;;;;;;;;;;;;14.71;40.77;100031.94;5071003;28;19939;-83
2024/04/06 01:55:15;;;;;;;;;;;;;;;14.72;40.62;100031.75;5070836;28;19916;-82
2024/04/06 01:57:40;;;;;;;;;;;;;;;14.71;40.11;100032.78;5072032;28;19917;-82
2024/04/06 02:00:08;;;;;;;;;;;;;;;14.72;40.56;100023.78;5070906;28;19912;-83
2024/04/06 02:02:33;;;;;;;;;;;;;;;14.70;40.67;100015.19;5071958;28;20448;-83
2024/04/06 02:04:58;;;;;;;;;;;;;;;14.70;40.77;100017.00;5070951;28;19992;-83
2024/04/06 02:07:23;;;;;;;;;;;;;;;14.66;41.34;100024.56;5072268;28;19935;-83
2024/04/06 02:09:49;;;;;;;;;;;;;;;14.61;41.20;100016.34;5071888;28;19912;-83
2024/04/06 02:12:14;;;;;;;;;;;;;;;14.59;40.61;100021.03;5071918;28;19912;-82
2024/04/06 02:14:39;;;;;;;;;;;;;;;14.50;41.71;100020.34;5070739;28;20318;-83
2024/04/06 02:17:05;;;;;;;;;;;;;;;14.49;41.41;100016.03;5072290;28;20021;-83
2024/04/06 02:19:30;;;;;;;;;;;;;;;14.48;41.67;100008.25;5071956;28;19919;-83
2024/04/06 02:21:56;;;;;;;;;;;;;;;14.48;40.75;100010.91;5070718;28;19919;-83
2024/04/06 02:24:21;;;;;;;;;;;;;;;14.46;40.41;100013.75;5070675;28;19919;-83
2024/04/06 02:26:46;;;;;;;;;;;;;;;14.34;41.11;100022.41;5070553;28;19948;-83
2024/04/06 02:29:12;;;;;;;;;;;;;;;14.31;41.35;100027.09;5071756;28;19916;-83
2024/04/06 02:31:37;;;;;;;;;;;;;;;14.31;41.01;100026.28;5071641;28;19909;-83
2024/04/06 02:34:02;;;;;;;;;;;;;;;14.31;41.94;100029.75;5070538;28;19913;-83
2024/04/06 02:36:28;;;;;;;;;;;;;;;14.32;41.86;100031.41;5071837;28;19912;-83
2024/04/06 02:38:53;;;;;;;;;;;;;;;14.39;41.27;100033.28;5070206;28;19924;-83
2024/04/06 02:41:18;;;;;;;;;;;;;;;14.36;42.37;100026.53;5071675;28;19923;-83
2024/04/06 02:43:44;;;;;;;;;;;;;;;14.30;40.72;100029.94;5070310;28;19918;-83
2024/04/06 02:46:10;;;;;;;;;;;;;;;14.13;41.02;100031.19;5071569;28;19961;-83
2024/04/06 02:48:35;;;;;;;;;;;;;;;14.04;41.22;100030.47;5071744;28;19970;-83
2024/04/06 02:51:02;;;;;;;;;;;;;;;13.98;42.41;100031.22;5071528;28;20384;-83
2024/04/06 02:53:28;;;;;;;;;;;;;;;14.02;42.68;100034.31;5071826;28;20447;-83
2024/04/06 02:55:53;;;;;;;;;;;;;;;14.11;41.48;100034.00;5071615;28;20046;-83
2024/04/06 02:58:18;;;;;;;;;;;;;;;14.14;42.54;100033.66;5071485;28;19970;-83
2024/04/06 03:00:44;;;;;;;;;;;;;;;14.12;42.21;100046.31;5072952;28;19916;-83
2024/04/06 03:03:09;;;;;;;;;;;;;;;14.07;42.08;100037.22;5070409;28;20313;-83
2024/04/06 03:05:34;;;;;;;;;;;;;;;14.09;41.94;100035.22;5070291;28;19959;-83
2024/04/06 03:07:59;;;;;;;;;;;;;;;14.14;42.07;100030.19;5071468;28;19919;-83
2024/04/06 03:10:25;;;;;;;;;;;;;;;14.19;41.25;100022.47;5071501;28;20389;-83
2024/04/06 03:12:50;;;;;;;;;;;;;;;14.21;41.48;100017.78;5070170;28;19912;-83
2024/04/06 03:15:15;;;;;;;;;;;;;;;14.20;41.37;100016.97;5071401;28;19905;-83
2024/04/06 03:17:40;;;;;;;;;;;;;;;14.19;42.40;100033.91;5071156;28;19970;-83
2024/04/06 03:20:08;;;;;;;;;;;;;;;14.16;42.95;100028.16;5071239;28;19919;-83
2024/04/06 03:22:33;;;;;;;;;;;;;;;14.17;41.81;100021.84;5071279;28;19962;-83
2024/04/06 03:24:58;;;;;;;;;;;;;;;14.20;41.76;100022.28;5071535;28;20373;-83
2024/04/06 03:27:24;;;;;;;;;;;;;;;14.20;41.78;100027.59;5071297;28;19919;-83
2024/04/06 03:29:49;;;;;;;;;;;;;;;14.23;42.23;100023.75;5071800;28;19970;-83
2024/04/06 03:32:14;;;;;;;;;;;;;;;14.06;43.09;100027.63;5075011;28;19920;-83
2024/04/06 03:34:40;;;;;;;;;;;;;;;13.99;42.69;100027.56;5073751;28;20301;-83
2024/04/06 03:37:05;;;;;;;;;;;;;;;13.77;42.84;100032.00;5074884;28;20325;-83
2024/04/06 03:39:31;;;;;;;;;;;;;;;13.73;43.35;100028.09;5075028;28;20006;-83
2024/04/06 03:41:56;;;;;;;;;;;;;;;13.75;42.38;100030.56;5074582;28;19913;-83
2024/04/06 03:44:21;;;;;;;;;;;;;;;13.70;43.41;100036.44;5074792;28;19919;-83
2024/04/06 03:46:46;;;;;;;;;;;;;;;13.67;42.31;100036.78;5074712;28;20401;-83
2024/04/06 03:49:12;;;;;;;;;;;;;;;13.70;42.85;100044.38;5074882;28;20884;-83
2024/04/06 03:51:37;;;;;;;;;;;;;;;13.79;42.52;100040.63;5074711;28;19935;-83
2024/04/06 03:54:02;;;;;;;;;;;;;;;13.87;42.19;100037.03;5073461;28;19935;-83
2024/04/06 03:56:27;;;;;;;;;;;;;;;13.90;41.99;100041.97;5074702;28;19944;-83
2024/04/06 03:58:53;;;;;;;;;;;;;;;13.92;41.98;100047.91;5074593;28;19999;-83
2024/04/06 04:01:18;;;;;;;;;;;;;;;13.92;41.81;100046.06;5074509;28;19969;-83
2024/04/06 04:03:43;;;;;;;;;;;;;;;13.89;41.63;100057.06;5074395;28;20324;-83
2024/04/06 04:06:09;;;;;;;;;;;;;;;13.90;42.32;100057.88;5073054;28;19912;-83
2024/04/06 04:08:35;;;;;;;;;;;;;;;13.88;42.75;100066.03;5074332;28;20325;-83
2024/04/06 04:11:00;;;;;;;;;;;;;;;13.89;42.55;100067.69;5074253;28;19942;-83
2024/04/06 04:13:25;;;;;;;;;;;;;;;13.87;43.53;100061.72;5074230;28;19995;-83
2024/04/06 04:15:51;;;;;;;;;;;;;;;13.87;43.22;100059.09;5074026;28;19913;-83
2024/04/06 04:18:16;;;;;;;;;;;;;;;13.94;42.95;100070.59;5074047;28;19920;-83
2024/04/06 04:20:42;;;;;;;;;;;;;;;13.94;42.42;100083.06;5074033;28;19918;-83
2024/04/06 04:23:07;;;;;;;;;;;;;;;13.93;42.45;100082.22;5074206;28;19913;-83
2024/04/06 04:25:32;;;;;;;;;;;;;;;13.95;42.50;100085.50;5074109;28;19912;-83
2024/04/06 04:27:58;;;;;;;;;;;;;;;13.95;42.05;100082.03;5073974;28;19966;-83
2024/04/06 04:30:24;;;;;;;;;;;;;;;13.97;42.98;100085.34;5074094;28;20408;-83
2024/04/06 04:32:49;;;;;;;;;;;;;;;14.01;42.77;100070.66;5073979;28;19920;-83
2024/04/06 04:35:14;;;;;;;;;;;;;;;14.08;41.95;100084.84;5072588;28;19916;-83
2024/04/06 04:37:40;;;;;;;;;;;;;;;14.10;43.24;100085.47;5073882;28;19916;-83
2024/04/06 04:40:06;;;;;;;;;;;;;;;14.13;42.08;100082.47;5073680;28;19966;-83
2024/04/06 04:42:31;;;;;;;;;;;;;;;14.15;41.87;100085.78;5072402;28;19912;-83
2024/04/06 04:44:59;;;;;;;;;;;;;;;14.15;41.92;100088.41;5073702;28;19915;-83
2024/04/06 04:47:24;;;;;;;;;;;;;;;14.18;42.14;100090.72;5073806;28;19919;-83
2024/04/06 04:49:50;;;;;;;;;;;;;;;14.15;41.80;100087.59;5073416;28;20301;-83
2024/04/06 04:52:15;;;;;;;;;;;;;;;14.05;42.75;100076.44;5073445;28;19958;-83
2024/04/06 04:54:40;;;;;;;;;;;;;;;14.03;43.28;100079.28;5073451;28;19919;-83
2024/04/06 04:57:05;;;;;;;;;;;;;;;14.02;41.72;100076.81;5073264;28;20020;-83
2024/04/06 04:59:31;;;;;;;;;;;;;;;13.98;42.44;100081.66;5073348;28;19912;-83
2024/04/06 05:01:56;;;;;;;;;;;;;;;13.82;43.47;100076.56;5073340;28;19916;-83
2024/04/06 05:04:21;;;;;;;;;;;;;;;13.67;43.32;100082.72;5072955;28;19935;-83
2024/04/06 05:06:46;;;;;;;;;;;;;;;13.71;43.25;100096.44;5073042;28;20363;-83
2024/04/06 05:09:12;;;;;;;;;;;;;;;13.77;43.17;100095.72;5073796;28;19916;-83
2024/04/06 05:11:37;;;;;;;;;;;;;;;13.67;43.57;100096.00;5073056;28;19912;-83
2024/04/06 05:14:03;;;;;;;;;;;;;;;13.58;43.29;100097.09;5071657;28;19991;-83
2024/04/06 05:16:29;;;;;;;;;;;;;;;13.59;43.51;100098.75;5072712;28;19912;-83
2024/04/06 05:18:54;;;;;;;;;;;;;;;13.66;43.41;100101.47;5072956;28;20493;-84
2024/04/06 05:21:19;;;;;;;;;;;;;;;13.78;43.04;100100.00;5071634;28;19916;-83
2024/04/06 05:23:44;;;;;;;;;;;;;;;13.86;43.07;100099.91;5072738;28;19919;-83
2024/04/06 05:26:10;;;;;;;;;;;;;;;13.88;44.20;100099.72;5072884;28;19916;-83
2024/04/06 05:28:35;;;;;;;;;;;;;;;13.91;43.57;100102.00;5072593;28;19916;-83
2024/04/06 05:31:00;;;;;;;;;;;;;;;13.87;43.81;100098.91;5072386;28;20313;-83
2024/04/06 05:33:25;;;;;;;;;;;;;;;13.90;43.96;100103.84;5071170;28;19992;-83
2024/04/06 05:35:51;;;;;;;;;;;;;;;13.97;44.06;100101.25;5072637;28;20313;-83
2024/04/06 05:38:17;;;;;;;;;;;;;;;14.05;43.00;100105.63;5072613;28;19952;-83
2024/04/06 05:40:43;;;;;;;;;;;;;;;14.12;42.60;100104.72;5072445;28;19913;-83
2024/04/06 05:43:09;;;;;;;;;;;;;;;14.18;43.76;100100.50;5072411;28;19921;-82
2024/04/06 05:45:35;;;;;;;;;;;;;;;14.20;42.75;100107.28;5072165;28;19916;-83
2024/04/06 05:48:04;;;;;;;;;;;;;;;14.27;43.39;100102.84;5071199;28;19939;-83
2024/04/06 05:50:30;;;;;;;;;;;;;;;14.38;43.08;100100.72;5072514;28;19966;-83
2024/04/06 05:52:55;;;;;;;;;;;;;;;14.50;42.52;100099.22;5070597;28;20003;-83
2024/04/06 05:55:20;;;;;;;;;;;;;;;14.57;43.29;100090.31;5072317;28;19955;-83
2024/04/06 05:57:46;;;;;;;;;;;;;;;14.71;43.66;100098.41;5071102;28;19922;-83
2024/04/06 06:00:11;;;;;;;;;;;;;;;14.86;42.79;100099.13;5071291;28;19913;-83
2024/04/06 06:02:36;;;;;;;;;;;;;;;14.99;43.01;100093.13;5072303;28;20344;-83
2024/04/06 06:05:02;;;;;;;;;;;;;;;15.14;42.69;100096.50;5072155;28;19919;-83
2024/04/06 06:07:27;;;;;;;;;;;;;;;15.24;42.79;100097.81;5072052;28;20438;-82
2024/04/06 06:09:52;;;;;;;;;;;;;;;15.35;42.07;100098.28;5071772;28;19961;-83
2024/04/06 06:12:19;;;;;;;;;;;;;;;15.47;42.42;100088.75;5070653;28;20278;-82
2024/04/06 06:14:44;;;;;;;;;;;;;;;15.57;42.20;100091.88;5071990;28;19916;-83
2024/04/06 06:17:09;;;;;;;;;;;;;;;15.68;41.97;100091.38;5071962;28;20003;-83
2024/04/06 06:19:34;;;;;;;;;;;;;;;15.75;42.13;100102.03;5070598;28;19916;-83
2024/04/06 06:22:00;;;;;;;;;;;;;;;15.87;41.93;100095.94;5070591;28;19947;-83
2024/04/06 06:24:25;;;;;;;;;;;;;;;15.99;41.92;100092.72;5070577;28;20464;-83
2024/04/06 06:26:50;;;;;;;;;;;;;;;16.13;41.92;100092.56;5071727;28;19922;-83
2024/04/06 06:29:17;;;;;;;;;;;;;;;16.27;43.38;100087.25;5070603;28;19954;-83
2024/04/06 06:31:42;;;;;;;;;;;;;;;16.41;42.83;100084.44;5070505;28;20305;-82
2024/04/06 06:34:07;;;;;;;;;;;;;;;16.52;41.50;100094.50;5071666;28;19917;-82
2024/04/06 06:36:32;;;;;;;;;;;;;;;16.64;42.21;100105.41;5071767;28;19919;-82
2024/04/06 06:38:58;;;;;;;;;;;;;;;16.77;41.45;100102.78;5072057;28;19924;-82
2024/04/06 06:41:23;;;;;;;;;;;;;;;16.89;40.57;100105.63;5070419;28;19912;-82
2024/04/06 06:43:48;;;;;;;;;;;;;;;16.98;40.67;100106.25;5071591;28;19999;-83
2024/04/06 06:46:13;;;;;;;;;;;;;;;17.08;40.46;100101.31;5070027;28;20301;-82
2024/04/06 06:48:39;;;;;;;;;;;;;;;17.14;39.98;100106.69;5071369;28;19947;-83
2024/04/06 06:51:04;;;;;;;;;;;;;;;17.23;40.10;100099.28;5071336;28;20298;-83
2024/04/06 06:53:29;;;;;;;;;;;;;;;17.34;39.70;100100.50;5071414;28;19945;-83
2024/04/06 06:55:55;;;;;;;;;;;;;;;17.37;39.69;100103.56;5071404;28;20042;-83
2024/04/06 06:58:20;;;;;;;;;;;;;;;17.42;39.10;100097.59;5070119;28;19923;-83
2024/04/06 07:00:46;;;;;;;;;;;;;;;17.42;39.13;100098.44;5071458;28;19913;-82
2024/04/06 07:03:11;;;;;;;;;;;;;;;17.56;38.67;100099.22;5071464;28;19927;-82
2024/04/06 07:05:36;;;;;;;;;;;;;;;17.67;38.19;100103.94;5073394;28;20385;-82
2024/04/06 07:08:01;;;;;;;;;;;;;;;17.78;37.91;100097.94;5075720;28;19919;-82
2024/04/06 07:10:27;;;;;;;;;;;;;;;17.87;38.14;100106.56;5075418;28;19913;-82
2024/04/06 07:12:52;;;;;;;;;;;;;;;17.99;37.90;100101.38;5074128;28;19913;-82
2024/04/06 07:15:17;;;;;;;;;;;;;;;18.07;37.86;100103.81;5075331;28;19959;-83
2024/04/06 07:17:43;;;;;;;;;;;;;;;18.08;37.84;100097.41;5073974;28;19970;-82
2024/04/06 07:20:08;;;;;;;;;;;;;;;18.15;37.75;100089.38;5073788;28;20401;-83
2024/04/06 07:22:33;;;;;;;;;;;;;;;18.19;37.73;100094.06;5074946;28;19912;-83
2024/04/06 07:24:59;;;;;;;;;;;;;;;18.26;37.71;100099.38;5075087;28;19909;-83
2024/04/06 07:27:24;;;;;;;;;;;;;;;18.34;37.35;100102.63;5075023;28;19962;-83
2024/04/06 07:29:50;;;;;;;;;;;;;;;18.45;37.00;100098.44;5075078;28;19951;-83
2024/04/06 07:32:16;;;;;;;;;;;;;;;18.56;36.90;100095.06;5074981;28;19920;-82
2024/04/06 07:34:41;;;;;;;;;;;;;;;18.68;36.77;100095.25;5074908;28;20365;-83
2024/04/06 07:37:07;;;;;;;;;;;;;;;18.79;36.65;100091.06;5074865;28;20446;-81
2024/04/06 07:39:32;;;;;;;;;;;;;;;18.82;36.25;100095.97;5074773;28;19920;-82
2024/04/06 07:41:57;;;;;;;;;;;;;;;18.84;36.49;100099.25;5074790;28;19924;-82
2024/04/06 07:44:23;;;;;;;;;;;;;;;18.94;36.59;100089.69;5074600;28;20382;-82
2024/04/06 07:46:48;;;;;;;;;;;;;;;19.05;36.59;100088.16;5074571;28;19917;-83
2024/04/06 07:49:13;;;;;;;;;;;;;;;19.23;36.41;100087.38;5073209;28;20312;-82
2024/04/06 07:51:42;;;;;;;;;;;;;;;19.42;35.89;100089.03;5074323;28;19917;-82
2024/04/06 07:54:07;;;;;;;;;;;;;;;19.61;35.90;100087.22;5073059;28;19920;-83
2024/04/06 07:56:33;;;;;;;;;;;;;;;19.77;35.46;100088.47;5074405;28;19912;-83
2024/04/06 07:58:58;;;;;;;;;;;;;;;19.83;35.68;100095.63;5074329;28;19921;-83
2024/04/06 08:01:23;;;;;;;;;;;;;;;19.78;35.50;100087.44;5073120;28;19913;-83
2024/04/06 08:03:49;;;;;;;;;;;;;;;19.81;35.95;100086.97;5074111;28;19933;-83
2024/04/06 08:06:16;;;;;;;;;;;;;;;19.80;36.12;100082.66;5073909;28;20408;-83
2024/04/06 08:08:43;;;;;;;;;;;;;;;19.84;36.51;100083.84;5072787;28;20455;-82
2024/04/06 08:11:08;;;;;;;;;;;;;;;19.94;35.98;100084.13;5074099;28;19935;-82
2024/04/06 08:13:33;;;;;;;;;;;;;;;19.97;35.66;100081.81;5074036;28;20305;-82
2024/04/06 08:15:58;;;;;;;;;;;;;;;20.06;36.32;100076.16;5072637;28;19965;-82
2024/04/06 08:18:24;;;;;;;;;;;;;;;20.14;35.32;100076.69;5074238;28;20336;-82
2024/04/06 08:20:49;;;;;;;;;;;;;;;20.23;35.10;100072.63;5074009;28;20023;-83
2024/04/06 08:23:17;;;;;;;;;;;;;;;20.29;35.11;100073.59;5074007;28;19919;-82
2024/04/06 08:25:42;;;;;;;;;;;;;;;20.40;34.67;100072.81;5072478;28;19920;-82
2024/04/06 08:28:07;;;;;;;;;;;;;;;20.56;34.34;100066.81;5073618;28;19916;-82
2024/04/06 08:30:33;;;;;;;;;;;;;;;20.72;34.11;100059.13;5072972;28;19966;-81
2024/04/06 08:32:58;;;;;;;;;;;;;;;20.82;33.95;100056.72;5073900;28;20384;-83
2024/04/06 08:35:23;;;;;;;;;;;;;;;21.02;33.72;100053.69;5073778;28;19912;-81
2024/04/06 08:37:48;;;;;;;;;;;;;;;21.16;33.17;100052.41;5073621;28;19916;-83
2024/04/06 08:40:16;;;;;;;;;;;;;;;21.34;33.31;100040.72;5072393;28;19990;-81
2024/04/06 08:42:42;;;;;;;;;;;;;;;21.53;33.12;100042.19;5073506;28;19985;-82
2024/04/06 08:45:08;;;;;;;;;;;;;;;21.66;33.01;100044.66;5073544;28;20350;-81
2024/04/06 08:47:33;;;;;;;;;;;;;;;21.77;33.01;100040.28;5072268;28;19913;-80
2024/04/06 08:50:00;;;;;;;;;;;;;;;21.95;32.89;100031.22;5073361;28;19920;-82
2024/04/06 08:52:26;;;;;;;;;;;;;;;22.09;32.87;100030.72;5073274;28;19912;-82
2024/04/06 08:54:51;;;;;;;;;;;;;;;22.29;32.66;100030.25;5072140;28;19955;-82
2024/04/06 08:57:18;;;;;;;;;;;;;;;22.52;31.45;100029.31;5073334;28;19916;-81
2024/04/06 08:59:43;;;;;;;;;;;;;;;22.73;31.42;100025.91;5072035;28;19912;-82
2024/04/06 09:02:09;;;;;;;;;;;;;;;22.80;29.88;100025.75;5073388;28;19905;-81
2024/04/06 09:04:34;;;;;;;;;;;;;;;22.77;30.05;100018.97;5071674;28;20022;-81
2024/04/06 09:07:00;;;;;;;;;;;;;;;22.92;30.15;100022.97;5073017;28;20348;-81
2024/04/06 09:09:25;;;;;;;;;;;;;;;23.04;30.19;100024.53;5072976;28;19916;-81
2024/04/06 09:11:51;;;;;;;;;;;;;;;23.17;30.59;100019.84;5071792;28;20403;-82
2024/04/06 09:14:16;;;;;;;;;;;;;;;23.40;30.55;100016.91;5072944;28;19959;-82
2024/04/06 09:16:42;;;;;;;;;;;;;;;23.60;30.30;100011.81;5071565;28;19912;-81
2024/04/06 09:19:08;;;;;;;;;;;;;;;23.77;29.50;100007.13;5072714;28;19943;-82
2024/04/06 09:21:33;;;;;;;;;;;;;;;24.02;30.56;100003.91;5071573;28;19912;-81
2024/04/06 09:23:59;;;;;;;;;;;;;;;24.06;29.62;99998.81;5072625;28;20313;-81
2024/04/06 09:26:24;;;;;;;;;;;;;;;24.20;29.41;99997.34;5071254;28;19912;-82
2024/04/06 09:28:53;;;;;;;;;;;;;;;24.37;28.80;99999.94;5071874;28;20017;-82
2024/04/06 09:31:19;;;;;;;;;;;;;;;24.52;28.10;99999.25;5072735;28;20026;-82
2024/04/06 09:33:45;;;;;;;;;;;;;;;24.60;28.74;99998.78;5071407;28;19912;-82
2024/04/06 09:36:11;;;;;;;;;;;;;;;24.74;28.81;99989.16;5072571;28;19920;-81
2024/04/06 09:38:36;;;;;;;;;;;;;;;24.84;28.46;99993.81;5071239;28;19916;-82
2024/04/06 09:41:02;;;;;;;;;;;;;;;24.87;28.64;99996.81;5072471;28;19912;-81
2024/04/06 09:43:27;;;;;;;;;;;;;;;24.98;28.02;99989.63;5072553;28;19947;-81
2024/04/06 09:45:53;;;;;;;;;;;;;;;25.12;28.36;99992.66;5072419;28;19912;-81
2024/04/06 09:48:19;;;;;;;;;;;;;;;25.21;27.77;99985.69;5072303;28;19913;-82
2024/04/06 09:50:44;;;;;;;;;;;;;;;25.32;27.72;99985.50;5072261;28;19913;-82
2024/04/06 09:53:12;;;;;;;;;;;;;;;25.44;28.11;99987.97;5071102;28;19913;-81
2024/04/06 09:55:39;;;;;;;;;;;;;;;25.53;27.96;99985.56;5069689;28;19916;-81
2024/04/06 09:58:04;;;;;;;;;;;;;;;25.65;26.87;99969.91;5072083;28;19923;-82
2024/04/06 10:00:31;;;;;;;;;;;;;;;25.89;27.46;99970.25;5070717;28;19913;-81
2024/04/06 10:02:59;;;;;;;;;;;;;;;26.00;26.52;99962.97;5071819;28;20011;-81
2024/04/06 10:05:35;;;;;;;;;;;;;;;26.05;27.35;99963.81;5071911;28;19950;-81
2024/04/06 10:08:02;;;;;;;;;;;;;;;26.15;26.47;99971.13;5071987;28;19912;-82
2024/04/06 10:10:31;;;;;;;;;;;;;;;26.28;26.42;99971.41;5071722;28;19969;-82
2024/04/06 10:12:57;;;;;;;;;;;;;;;26.42;26.64;99968.16;5071823;28;19912;-81
2024/04/06 10:15:22;;;;;;;;;;;;;;;26.48;26.90;99959.78;5071845;28;20317;-81
2024/04/06 10:17:48;;;;;;;;;;;;;;;26.48;26.45;99948.94;5071872;28;19924;-82
2024/04/06 10:20:18;;;;;;;;;;;;;;;26.53;25.91;99946.22;5071746;28;19924;-82
2024/04/06 10:22:44;;;;;;;;;;;;;;;26.71;26.06;99933.19;5071670;28;19913;-81
2024/04/06 10:25:10;;;;;;;;;;;;;;;26.92;26.84;99937.50;5071682;28;19919;-83
2024/04/06 10:27:38;;;;;;;;;;;;;;;27.09;25.76;99935.28;5071626;28;20393;-82
2024/04/06 10:30:04;;;;;;;;;;;;;;;27.26;25.08;99931.41;5070466;28;19916;-82
2024/04/06 10:32:30;;;;;;;;;;;;;;;27.46;26.24;99934.03;5071747;28;20300;-82
2024/04/06 10:35:03;;;;;;;;;;;;;;;27.46;25.83;99925.88;5071589;28;19942;-82
2024/04/06 10:37:29;;;;;;;;;;;;;;;27.48;25.57;99923.72;5071646;28;19920;-81
2024/04/06 10:39:55;;;;;;;;;;;;;;;27.47;24.90;99922.09;5071564;28;19913;-82
2024/04/06 10:42:25;;;;;;;;;;;;;;;27.51;25.11;99918.56;5070260;28;19912;-82
2024/04/06 10:44:50;;;;;;;;;;;;;;;27.49;25.96;99911.78;5070617;28;19969;-82
2024/04/06 10:47:15;;;;;;;;;;;;;;;27.44;25.70;99907.19;5071736;28;19913;-81
2024/04/06 10:49:41;;;;;;;;;;;;;;;27.59;25.25;99909.03;5071700;28;19924;-81
2024/04/06 10:52:08;;;;;;;;;;;;;;;27.70;25.18;99905.19;5071561;28;19971;-81
2024/04/06 10:54:35;;;;;;;;;;;;;;;27.94;24.44;99902.56;5071450;28;19916;-82
2024/04/06 10:57:00;;;;;;;;;;;;;;;28.11;25.20;99897.50;5071370;28;20415;-82
2024/04/06 10:59:26;;;;;;;;;;;;;;;28.15;24.74;99895.03;5071486;28;19912;-81
2024/04/06 11:01:51;;;;;;;;;;;;;;;28.25;24.44;99896.91;5070272;28;19916;-82
2024/04/06 11:04:16;;;;;;;;;;;;;;;28.15;23.21;99886.91;5071211;28;19920;-82
2024/04/06 11:06:41;;;;;;;;;;;;;;;28.21;24.06;99882.22;5071415;28;19948;-82
2024/04/06 11:09:10;;;;;;;;;;;;;;;28.32;23.53;99876.47;5070076;28;19912;-82
2024/04/06 11:11:35;;;;;;;;;;;;;;;28.35;23.49;99858.78;5071144;28;19984;-81
2024/04/06 11:14:00;;;;;;;;;;;;;;;28.39;24.79;99854.41;5069874;28;19947;-80
2024/04/06 11:16:26;;;;;;;;;;;;;;;28.49;24.38;99867.88;5071094;28;20282;-80
2024/04/06 11:18:51;;;;;;;;;;;;;;;28.46;23.10;99857.59;5069850;28;19943;-81
2024/04/06 11:21:17;;;;;;;;;;;;;;;28.35;23.76;99856.88;5071149;28;19924;-81
2024/04/06 11:23:43;;;;;;;;;;;;;;;28.19;24.13;99847.22;5069806;28;19913;-81
2024/04/06 11:26:08;;;;;;;;;;;;;;;28.18;24.41;99856.47;5070919;28;19939;-82
2024/04/06 11:28:34;;;;;;;;;;;;;;;28.01;24.21;99851.47;5070893;28;20370;-82
2024/04/06 11:31:02;;;;;;;;;;;;;;;27.81;24.53;99843.50;5069849;28;20389;-82
2024/04/06 11:33:27;;;;;;;;;;;;;;;27.91;23.40;99837.97;5069793;28;20316;-81
2024/04/06 11:35:56;;;;;;;;;;;;;;;28.01;24.72;99831.66;5071024;28;19925;-81
2024/04/06 11:38:21;;;;;;;;;;;;;;;28.02;23.74;99820.50;5070827;28;20458;-81
2024/04/06 11:40:47;;;;;;;;;;;;;;;28.07;24.43;99827.78;5071031;28;19970;-82
2024/04/06 11:43:16;;;;;;;;;;;;;;;27.99;24.39;99821.06;5069834;28;19948;-81
2024/04/06 11:45:41;;;;;;;;;;;;;;;27.72;24.01;99821.59;5071105;28;19908;-82
2024/04/06 11:48:07;;;;;;;;;;;;;;;27.77;23.82;99812.59;5071061;28;19935;-82
2024/04/06 11:50:32;;;;;;;;;;;;;;;27.85;24.17;99820.13;5070977;28;19913;-82
2024/04/06 11:52:57;;;;;;;;;;;;;;;27.81;23.71;99810.94;5073220;28;19962;-82
2024/04/06 11:55:23;;;;;;;;;;;;;;;27.74;24.03;99810.47;5073235;28;19909;-81
2024/04/06 11:57:48;;;;;;;;;;;;;;;27.68;24.55;99798.03;5073121;28;20435;-81
2024/04/06 12:00:13;;;;;;;;;;;;;;;27.77;24.54;99797.13;5074462;28;20385;-82
2024/04/06 12:02:39;;;;;;;;;;;;;;;27.93;24.29;99794.28;5074450;28;19912;-81
2024/04/06 12:05:04;;;;;;;;;;;;;;;28.13;23.71;99794.88;5074419;28;20369;-81
2024/04/06 12:07:29;;;;;;;;;;;;;;;28.06;23.77;99788.16;5074248;28;19963;-82
2024/04/06 12:09:57;;;;;;;;;;;;;;;28.12;23.17;99787.81;5073864;28;20456;-82
2024/04/06 12:12:22;;;;;;;;;;;;;;;28.22;23.66;99791.53;5074178;28;19916;-82
2024/04/06 12:14:47;;;;;;;;;;;;;;;28.15;23.34;99784.53;5074166;28;19927;-81
2024/04/06 12:17:19;;;;;;;;;;;;;;;28.22;23.57;99773.34;5074063;28;20332;-82
2024/04/06 12:19:45;;;;;;;;;;;;;;;28.24;23.99;99767.66;5072807;28;20463;-82
2024/04/06 12:22:10;;;;;;;;;;;;;;;28.15;23.02;99759.28;5074272;28;19991;-81
2024/04/06 12:24:40;;;;;;;;;;;;;;;28.09;22.67;99765.88;5074318;28;19913;-82
2024/04/06 12:27:05;;;;;;;;;;;;;;;28.07;23.83;99762.63;5072725;28;20329;-81
2024/04/06 12:29:30;;;;;;;;;;;;;;;28.10;22.91;99762.06;5074151;28;19912;-81